Time;durP1;ratioP1;P1;durP2;ratioP2;P2;SDS_P1;SDS_P2;PMS_P1;PMS_P2;Temp;Humidity;BMP_temperature;BMP_pressure;BME280_temperature;BME280_humidity;BME280_pressure;Samples;Min_cycle;Max_cycle;Signal;HPM_P1;HPM_P2
2022/03/22 00:00:05;;;;;;;;;;;21.40;24.30;;;;;;694099;28;1216;-85
2022/03/22 00:00:26;;;;;;;;;;;21.40;24.20;;;;;;694424;28;1342;-84
2022/03/22 00:00:46;;;;;;;;;;;21.40;24.30;;;;;;696979;28;838;-85
2022/03/22 00:01:07;;;;;;;;;;;21.70;25.70;;;;;;692953;28;1385;-84
2022/03/22 00:01:27;;;;;;;;;;;21.30;24.90;;;;;;691245;28;1035;-85
2022/03/22 00:01:50;;;;;;;;;;;21.40;24.50;;;;;;692888;28;1113;-84
2022/03/22 00:02:11;;;;;;;;;;;21.30;24.70;;;;;;691717;28;1365;-86
2022/03/22 00:02:31;;;;;;;;;;;21.30;25.50;;;;;;691753;28;922;-85
2022/03/22 00:02:52;;;;;;;;;;;21.30;24.70;;;;;;689293;28;1184;-89
2022/03/22 00:03:14;;;;;;;;;;;21.30;25.60;;;;;;690067;28;1363;-86
2022/03/22 00:03:34;;;;;;;;;;;21.30;24.70;;;;;;686571;28;1327;-85
2022/03/22 00:03:55;;;;;;;;;;;21.40;24.40;;;;;;683786;28;1112;-85
2022/03/22 00:04:16;;;;;;;;;;;21.30;25.10;;;;;;686334;28;776;-86
2022/03/22 00:04:38;;;;;;;;;;;21.30;24.70;;;;;;683677;28;1481;-85
2022/03/22 00:04:58;;;;;;;;;;;21.30;24.40;;;;;;684148;28;776;-85
2022/03/22 00:05:19;;;;;;;;;;;21.30;24.80;;;;;;683773;28;1265;-85
2022/03/22 00:05:42;;;;;;;;;;;21.30;24.90;;;;;;686404;28;1475;-85
2022/03/22 00:06:03;;;;;;;;;;;21.30;24.40;;;;;;688778;28;810;-86
2022/03/22 00:06:23;;;;;;;;;;;21.30;24.80;;;;;;689476;28;1124;-85
2022/03/22 00:06:44;;;;;;;;;;;21.30;25.50;;;;;;689190;28;1716;-86
2022/03/22 00:07:04;;;;;;;;;;;21.30;24.00;;;;;;691802;28;1614;-86
2022/03/22 00:07:27;;;;;;;;;;;21.30;24.40;;;;;;693368;28;1462;-84
2022/03/22 00:07:48;;;;;;;;;;;21.40;24.50;;;;;;689393;28;1427;-85
2022/03/22 00:08:09;;;;;;;;;;;21.30;25.50;;;;;;691592;28;953;-84
2022/03/22 00:08:30;;;;;;;;;;;21.30;24.30;;;;;;689337;28;874;-84
2022/03/22 00:08:50;;;;;;;;;;;21.30;24.50;;;;;;691336;28;728;-85
2022/03/22 00:09:11;;;;;;;;;;;21.30;24.20;;;;;;689338;28;1281;-85
2022/03/22 00:09:33;;;;;;;;;;;21.30;24.40;;;;;;690922;28;1176;-88
2022/03/22 00:09:53;;;;;;;;;;;21.30;24.30;;;;;;691454;28;759;-86
2022/03/22 00:10:14;;;;;;;;;;;18.70;23.70;;;;;;691361;28;1251;-86
2022/03/22 00:10:35;;;;;;;;;;;21.30;24.40;;;;;;688706;28;1189;-86
2022/03/22 00:10:55;;;;;;;;;;;21.30;24.30;;;;;;689068;28;1220;-86
2022/03/22 00:11:16;;;;;;;;;;;21.30;23.90;;;;;;691016;28;949;-85
2022/03/22 00:11:36;;;;;;;;;;;21.30;24.30;;;;;;688577;28;1242;-85
2022/03/22 00:11:57;;;;;;;;;;;21.30;24.30;;;;;;688271;28;1431;-84
2022/03/22 00:12:17;;;;;;;;;;;21.30;24.70;;;;;;688970;28;1367;-86
2022/03/22 00:12:38;;;;;;;;;;;21.30;24.20;;;;;;688616;28;1339;-86
2022/03/22 00:12:59;;;;;;;;;;;21.30;24.40;;;;;;688444;28;1944;-85
2022/03/22 00:13:19;;;;;;;;;;;21.30;24.40;;;;;;690336;28;1294;-85
2022/03/22 00:13:43;;;;;;;;;;;21.30;24.60;;;;;;690626;28;1086;-84
2022/03/22 00:14:06;;;;;;;;;;;21.30;23.80;;;;;;691391;28;1251;-85
2022/03/22 00:14:26;;;;;;;;;;;19.00;23.70;;;;;;690514;28;1223;-83
2022/03/22 00:14:47;;;;;;;;;;;21.30;24.60;;;;;;692293;28;1121;-84
2022/03/22 00:15:08;;;;;;;;;;;21.30;25.00;;;;;;694041;28;937;-86
2022/03/22 00:15:29;;;;;;;;;;;21.30;24.10;;;;;;694162;28;1312;-84
2022/03/22 00:15:50;;;;;;;;;;;21.30;24.50;;;;;;693470;28;1521;-86
2022/03/22 00:16:12;;;;;;;;;;;21.30;24.30;;;;;;690952;28;1225;-86
2022/03/22 00:16:32;;;;;;;;;;;21.30;24.30;;;;;;692107;28;1000;-84
2022/03/22 00:16:53;;;;;;;;;;;21.30;24.10;;;;;;691163;28;1359;-86
2022/03/22 00:17:14;;;;;;;;;;;21.30;24.50;;;;;;691319;28;1227;-86
2022/03/22 00:17:35;;;;;;;;;;;21.30;24.30;;;;;;688687;28;1067;-86
2022/03/22 00:17:55;;;;;;;;;;;21.30;24.40;;;;;;688736;28;1244;-86
2022/03/22 00:18:18;;;;;;;;;;;21.30;24.10;;;;;;685984;28;1239;-87
2022/03/22 00:18:39;;;;;;;;;;;21.30;23.90;;;;;;683669;28;989;-86
2022/03/22 00:18:59;;;;;;;;;;;23.50;25.10;;;;;;688374;28;1100;-86
2022/03/22 00:19:20;;;;;;;;;;;21.30;24.60;;;;;;689119;28;1225;-88
2022/03/22 00:19:41;;;;;;;;;;;21.30;24.50;;;;;;688705;28;1090;-87
2022/03/22 00:20:01;;;;;;;;;;;21.30;24.10;;;;;;685972;28;1349;-86
2022/03/22 00:20:23;;;;;;;;;;;21.30;24.50;;;;;;686311;28;1259;-85
2022/03/22 00:20:43;;;;;;;;;;;21.30;24.00;;;;;;689065;28;1686;-87
2022/03/22 00:21:06;;;;;;;;;;;21.30;24.20;;;;;;688714;28;1281;-86
2022/03/22 00:21:26;;;;;;;;;;;21.30;24.00;;;;;;687371;28;1524;-85
2022/03/22 00:21:47;;;;;;;;;;;21.30;25.20;;;;;;691244;28;1272;-86
2022/03/22 00:22:11;;;;;;;;;;;21.20;24.40;;;;;;692146;28;1342;-86
2022/03/22 00:22:31;;;;;;;;;;;21.30;24.40;;;;;;693208;28;838;-86
2022/03/22 00:22:52;;;;;;;;;;;21.30;23.80;;;;;;688449;28;1379;-85
2022/03/22 00:23:13;;;;;;;;;;;21.30;24.70;;;;;;689512;28;819;-86
2022/03/22 00:23:33;;;;;;;;;;;21.30;25.00;;;;;;691223;28;1096;-86
2022/03/22 00:23:55;;;;;;;;;;;21.30;23.60;;;;;;692052;28;1130;-86
2022/03/22 00:24:15;;;;;;;;;;;21.30;24.10;;;;;;694056;28;1208;-86
2022/03/22 00:24:36;;;;;;;;;;;21.30;24.10;;;;;;694474;28;1184;-86
2022/03/22 00:24:57;;;;;;;;;;;21.40;24.10;;;;;;693680;28;1183;-86
2022/03/22 00:25:17;;;;;;;;;;;21.30;23.60;;;;;;691022;28;1299;-86
2022/03/22 00:25:38;;;;;;;;;;;21.30;24.70;;;;;;685894;28;1234;-86
2022/03/22 00:25:59;;;;;;;;;;;21.30;23.80;;;;;;685637;28;1363;-87
2022/03/22 00:26:19;;;;;;;;;;;21.30;24.40;;;;;;686376;28;1209;-88
2022/03/22 00:26:40;;;;;;;;;;;21.30;24.60;;;;;;688927;28;1409;-87
2022/03/22 00:27:00;;;;;;;;;;;19.90;23.50;;;;;;691558;28;1338;-86
2022/03/22 00:27:22;;;;;;;;;;;21.20;24.40;;;;;;691650;28;1421;-87
2022/03/22 00:27:55;;;;;;;;;;;21.30;23.30;;;;;;693554;28;1254;-85
2022/03/22 00:28:16;;;;;;;;;;;21.30;23.20;;;;;;692022;28;1121;-86
2022/03/22 00:28:37;;;;;;;;;;;21.30;23.30;;;;;;691936;28;1105;-85
2022/03/22 00:28:59;;;;;;;;;;;21.30;23.50;;;;;;692463;28;1734;-87
2022/03/22 00:29:20;;;;;;;;;;;21.30;23.30;;;;;;694099;28;1716;-86
2022/03/22 00:29:40;;;;;;;;;;;21.30;25.50;;;;;;693995;28;1219;-85
2022/03/22 00:30:01;;;;;;;;;;;21.30;24.30;;;;;;690700;28;1349;-88
2022/03/22 00:30:26;;;;;;;;;;;21.30;23.70;;;;;;686093;28;1221;-86
2022/03/22 00:30:47;;;;;;;;;;;21.30;23.20;;;;;;686447;28;1523;-86
2022/03/22 00:31:07;;;;;;;;;;;21.20;25.50;;;;;;690533;28;1280;-86
2022/03/22 00:31:28;;;;;;;;;;;21.60;25.60;;;;;;691464;28;1244;-86
2022/03/22 00:31:48;;;;;;;;;;;21.20;25.20;;;;;;694050;28;1176;-86
2022/03/22 00:32:09;;;;;;;;;;;21.20;24.30;;;;;;693633;28;1689;-85
2022/03/22 00:32:30;;;;;;;;;;;21.20;23.70;;;;;;696631;28;1192;-86
2022/03/22 00:32:54;;;;;;;;;;;21.30;23.80;;;;;;691160;28;1894;-87
2022/03/22 00:33:15;;;;;;;;;;;21.30;23.70;;;;;;691443;28;1216;-86
2022/03/22 00:33:36;;;;;;;;;;;20.90;24.70;;;;;;690572;28;1271;-88
2022/03/22 00:33:56;;;;;;;;;;;21.20;24.10;;;;;;690800;28;1391;-86
2022/03/22 00:34:17;;;;;;;;;;;21.30;24.00;;;;;;692229;28;1378;-89
2022/03/22 00:34:55;;;;;;;;;;;21.30;24.30;;;;;;694002;28;1063;-86
2022/03/22 00:35:18;;;;;;;;;;;21.30;24.00;;;;;;693311;28;1283;-86
2022/03/22 00:35:39;;;;;;;;;;;21.30;25.00;;;;;;690898;28;1343;-86
2022/03/22 00:36:00;;;;;;;;;;;21.30;24.10;;;;;;688552;28;1101;-89
2022/03/22 00:36:20;;;;;;;;;;;21.30;24.50;;;;;;686318;28;1356;-86
2022/03/22 00:36:41;;;;;;;;;;;21.30;23.80;;;;;;683144;29;1392;-87
2022/03/22 00:37:02;;;;;;;;;;;21.20;23.90;;;;;;683874;28;1334;-86
2022/03/22 00:37:23;;;;;;;;;;;19.70;25.00;;;;;;686349;28;1240;-85
2022/03/22 00:37:44;;;;;;;;;;;21.20;24.40;;;;;;688733;28;1298;-90
2022/03/22 00:38:06;;;;;;;;;;;21.20;24.30;;;;;;689795;28;1355;-87
2022/03/22 00:38:26;;;;;;;;;;;21.30;24.00;;;;;;691347;28;1227;-87
2022/03/22 00:38:47;;;;;;;;;;;21.20;24.80;;;;;;688594;28;1416;-86
2022/03/22 00:39:08;;;;;;;;;;;21.30;24.40;;;;;;688525;28;1121;-89
2022/03/22 00:39:28;;;;;;;;;;;21.30;24.10;;;;;;686547;28;1233;-85
2022/03/22 00:39:49;;;;;;;;;;;21.20;25.80;;;;;;686376;28;1270;-84
2022/03/22 00:40:13;;;;;;;;;;;21.20;25.00;;;;;;688480;28;1340;-87
2022/03/22 00:40:34;;;;;;;;;;;21.20;24.60;;;;;;689656;28;863;-87
2022/03/22 00:40:54;;;;;;;;;;;19.90;23.40;;;;;;691250;28;1213;-85
2022/03/22 00:41:16;;;;;;;;;;;21.20;24.80;;;;;;691270;28;1287;-85
2022/03/22 00:41:37;;;;;;;;;;;21.30;24.60;;;;;;692417;28;1417;-86
2022/03/22 00:41:58;;;;;;;;;;;21.20;24.90;;;;;;693012;28;1187;-86
2022/03/22 00:42:18;;;;;;;;;;;21.20;24.40;;;;;;691390;28;839;-86
2022/03/22 00:42:39;;;;;;;;;;;21.20;24.60;;;;;;693614;28;1286;-86
2022/03/22 00:42:59;;;;;;;;;;;21.20;25.60;;;;;;693561;28;1371;-86
2022/03/22 00:43:20;;;;;;;;;;;21.20;24.50;;;;;;688691;28;1341;-86
2022/03/22 00:43:41;;;;;;;;;;;21.20;25.70;;;;;;686170;28;1229;-86
2022/03/22 00:44:01;;;;;;;;;;;21.20;27.00;;;;;;688539;28;1310;-86
2022/03/22 00:44:22;;;;;;;;;;;21.20;25.90;;;;;;688203;28;1332;-86
2022/03/22 00:44:43;;;;;;;;;;;21.20;24.70;;;;;;688519;28;1411;-85
2022/03/22 00:45:04;;;;;;;;;;;21.20;24.30;;;;;;688917;28;775;-89
2022/03/22 00:45:27;;;;;;;;;;;21.30;26.00;;;;;;691794;28;1201;-85
2022/03/22 00:45:48;;;;;;;;;;;21.20;24.20;;;;;;694699;28;1134;-86
2022/03/22 00:46:09;;;;;;;;;;;21.20;24.90;;;;;;696044;28;1455;-84
2022/03/22 00:46:29;;;;;;;;;;;21.30;24.10;;;;;;694675;28;1165;-86
2022/03/22 00:46:50;;;;;;;;;;;21.30;23.80;;;;;;696007;28;1080;-86
2022/03/22 00:47:10;;;;;;;;;;;21.20;23.80;;;;;;696722;28;1223;-87
2022/03/22 00:47:31;;;;;;;;;;;21.20;23.80;;;;;;696865;28;811;-86
2022/03/22 00:47:52;;;;;;;;;;;21.30;24.20;;;;;;696661;28;783;-86
2022/03/22 00:48:13;;;;;;;;;;;21.20;23.90;;;;;;691313;28;1224;-85
2022/03/22 00:48:34;;;;;;;;;;;21.30;25.20;;;;;;691135;28;1308;-86
2022/03/22 00:48:55;;;;;;;;;;;21.20;23.90;;;;;;691632;28;1240;-85
2022/03/22 00:49:15;;;;;;;;;;;21.20;24.80;;;;;;693984;28;1132;-86
2022/03/22 00:49:36;;;;;;;;;;;21.20;24.40;;;;;;694046;28;1113;-85
2022/03/22 00:49:57;;;;;;;;;;;21.20;24.10;;;;;;691407;28;1230;-87
2022/03/22 00:50:19;;;;;;;;;;;21.20;24.50;;;;;;691633;28;1383;-87
2022/03/22 00:50:41;;;;;;;;;;;21.30;24.10;;;;;;690222;28;1226;-85
2022/03/22 00:51:02;;;;;;;;;;;21.10;23.80;;;;;;685950;28;1106;-89
2022/03/22 00:51:24;;;;;;;;;;;21.20;24.40;;;;;;683199;28;1102;-85
2022/03/22 00:51:44;;;;;;;;;;;21.20;24.20;;;;;;684267;28;772;-86
2022/03/22 00:52:05;;;;;;;;;;;21.20;25.30;;;;;;685953;28;1129;-86
2022/03/22 00:52:26;;;;;;;;;;;21.20;24.30;;;;;;686623;28;717;-86
2022/03/22 00:52:47;;;;;;;;;;;21.20;24.90;;;;;;686181;28;1904;-85
2022/03/22 00:53:08;;;;;;;;;;;21.20;24.30;;;;;;689286;28;807;-86
2022/03/22 00:53:28;;;;;;;;;;;21.20;24.00;;;;;;691415;28;1251;-84
2022/03/22 00:53:50;;;;;;;;;;;21.20;23.70;;;;;;691540;28;1263;-85
2022/03/22 00:54:11;;;;;;;;;;;21.20;24.10;;;;;;688518;28;1557;-87
2022/03/22 00:54:33;;;;;;;;;;;21.20;24.20;;;;;;689112;28;1342;-86
2022/03/22 00:54:53;;;;;;;;;;;21.20;24.30;;;;;;688404;28;1361;-88
2022/03/22 00:55:14;;;;;;;;;;;21.20;24.50;;;;;;688059;28;779;-86
2022/03/22 00:55:36;;;;;;;;;;;21.10;24.60;;;;;;686080;28;795;-85
2022/03/22 00:55:56;;;;;;;;;;;21.20;24.00;;;;;;683904;28;1468;-85
2022/03/22 00:56:17;;;;;;;;;;;21.20;23.50;;;;;;683811;28;1216;-86
2022/03/22 00:56:38;;;;;;;;;;;21.20;23.90;;;;;;686529;28;819;-87
2022/03/22 00:56:59;;;;;;;;;;;21.20;23.80;;;;;;685928;28;1165;-85
2022/03/22 00:57:20;;;;;;;;;;;21.10;24.50;;;;;;685953;28;1200;-85
2022/03/22 00:57:41;;;;;;;;;;;21.20;23.90;;;;;;686470;28;1315;-85
2022/03/22 00:58:03;;;;;;;;;;;21.20;23.60;;;;;;689257;28;941;-87
2022/03/22 00:58:23;;;;;;;;;;;21.20;25.00;;;;;;688548;28;1094;-85
2022/03/22 00:58:44;;;;;;;;;;;21.10;24.30;;;;;;689292;28;1236;-88
2022/03/22 01:00:01;;;;;;;;;;;21.20;23.50;;;;;;688800;28;680;-86
2022/03/22 01:00:26;;;;;;;;;;;21.20;23.40;;;;;;688223;28;1109;-84
2022/03/22 01:00:48;;;;;;;;;;;21.20;23.50;;;;;;688671;28;752;-86
2022/03/22 01:01:08;;;;;;;;;;;21.20;23.90;;;;;;685738;28;834;-86
2022/03/22 01:01:29;;;;;;;;;;;21.10;23.70;;;;;;685798;28;1301;-85
2022/03/22 01:01:49;;;;;;;;;;;21.20;24.10;;;;;;685817;28;1106;-88
2022/03/22 01:02:10;;;;;;;;;;;21.20;24.40;;;;;;687206;28;812;-87
2022/03/22 01:02:34;;;;;;;;;;;21.20;24.10;;;;;;685852;28;1357;-85
2022/03/22 01:02:58;;;;;;;;;;;21.20;24.40;;;;;;683978;28;1219;-84
2022/03/22 01:03:18;;;;;;;;;;;21.10;23.40;;;;;;683103;29;1219;-86
2022/03/22 01:03:39;;;;;;;;;;;21.20;23.50;;;;;;681759;29;1238;-86
2022/03/22 01:03:59;;;;;;;;;;;21.20;24.30;;;;;;683193;28;1162;-88
2022/03/22 01:04:20;;;;;;;;;;;21.10;24.50;;;;;;684584;28;1081;-86
2022/03/22 01:04:43;;;;;;;;;;;21.10;24.60;;;;;;686465;28;1353;-84
2022/03/22 01:05:07;;;;;;;;;;;21.20;24.00;;;;;;685947;28;1094;-84
2022/03/22 01:05:29;;;;;;;;;;;21.20;24.20;;;;;;684585;28;1338;-84
2022/03/22 01:05:50;;;;;;;;;;;21.10;23.40;;;;;;683237;28;1352;-85
2022/03/22 01:06:11;;;;;;;;;;;21.20;23.30;;;;;;681956;29;1086;-84
2022/03/22 01:06:32;;;;;;;;;;;21.20;23.40;;;;;;685523;28;1065;-84
2022/03/22 01:06:53;;;;;;;;;;;21.20;23.50;;;;;;687833;28;854;-85
2022/03/22 01:07:13;;;;;;;;;;;21.20;23.70;;;;;;685009;28;1347;-84
2022/03/22 01:07:34;;;;;;;;;;;21.10;23.70;;;;;;687964;28;985;-85
2022/03/22 01:07:56;;;;;;;;;;;21.10;23.70;;;;;;687970;28;1280;-86
2022/03/22 01:08:17;;;;;;;;;;;21.10;23.40;;;;;;688155;28;1086;-85
2022/03/22 01:08:38;;;;;;;;;;;21.20;24.20;;;;;;687812;28;1089;-85
2022/03/22 01:08:59;;;;;;;;;;;21.10;23.40;;;;;;688223;28;1238;-86
2022/03/22 01:09:20;;;;;;;;;;;21.10;23.20;;;;;;685313;28;1224;-83
2022/03/22 01:09:40;;;;;;;;;;;21.20;23.40;;;;;;685733;28;1122;-85
2022/03/22 01:10:11;;;;;;;;;;;21.20;23.60;;;;;;685734;28;1229;-85
2022/03/22 01:10:32;;;;;;;;;;;21.10;23.10;;;;;;687965;28;1283;-84
2022/03/22 01:10:53;;;;;;;;;;;21.10;23.10;;;;;;692605;28;1441;-85
2022/03/22 01:11:16;;;;;;;;;;;21.20;23.80;;;;;;691442;28;1311;-84
2022/03/22 01:11:37;;;;;;;;;;;20.70;22.90;;;;;;694073;28;1284;-84
2022/03/22 01:11:57;;;;;;;;;;;21.10;23.80;;;;;;693678;28;1091;-86
2022/03/22 01:12:18;;;;;;;;;;;21.10;24.00;;;;;;694654;28;1425;-85
2022/03/22 01:12:39;;;;;;;;;;;21.10;23.50;;;;;;694722;28;1087;-85
2022/03/22 01:13:00;;;;;;;;;;;21.10;23.20;;;;;;693967;28;1975;-86
2022/03/22 01:13:22;;;;;;;;;;;21.10;24.10;;;;;;691456;28;1373;-85
2022/03/22 01:13:42;;;;;;;;;;;21.10;23.50;;;;;;689153;28;1197;-85
2022/03/22 01:14:03;;;;;;;;;;;21.10;24.30;;;;;;690240;28;1275;-86
2022/03/22 01:14:27;;;;;;;;;;;21.10;23.20;;;;;;690796;28;1274;-86
2022/03/22 01:14:48;;;;;;;;;;;21.10;24.00;;;;;;694547;28;1230;-86
2022/03/22 01:15:10;;;;;;;;;;;21.10;23.60;;;;;;693825;28;957;-86
2022/03/22 01:15:34;;;;;;;;;;;21.10;23.10;;;;;;691202;28;1189;-87
2022/03/22 01:15:55;;;;;;;;;;;21.10;23.20;;;;;;690186;28;1236;-87
2022/03/22 01:16:16;;;;;;;;;;;21.10;24.80;;;;;;691821;28;1323;-86
2022/03/22 01:16:39;;;;;;;;;;;21.20;25.10;;;;;;689964;28;1446;-87
2022/03/22 01:16:59;;;;;;;;;;;21.10;23.50;;;;;;692218;28;1297;-86
2022/03/22 01:17:20;;;;;;;;;;;21.10;23.30;;;;;;692994;28;1176;-86
2022/03/22 01:17:41;;;;;;;;;;;21.10;23.30;;;;;;693539;28;1232;-86
2022/03/22 01:18:06;;;;;;;;;;;21.10;23.10;;;;;;692851;28;1299;-86
2022/03/22 01:18:27;;;;;;;;;;;21.10;23.40;;;;;;692326;28;1315;-87
2022/03/22 01:18:51;;;;;;;;;;;21.10;23.20;;;;;;692613;28;1292;-86
2022/03/22 01:19:11;;;;;;;;;;;21.10;23.00;;;;;;693320;28;1001;-86
2022/03/22 01:19:32;;;;;;;;;;;21.10;23.90;;;;;;691515;28;1111;-86
2022/03/22 01:19:53;;;;;;;;;;;21.10;23.20;;;;;;693596;28;1300;-88
2022/03/22 01:20:14;;;;;;;;;;;21.10;23.90;;;;;;693090;28;1178;-87
2022/03/22 01:20:35;;;;;;;;;;;21.10;23.10;;;;;;690220;28;1139;-87
2022/03/22 01:20:57;;;;;;;;;;;21.10;23.30;;;;;;692714;28;1355;-87
2022/03/22 01:21:18;;;;;;;;;;;21.00;25.10;;;;;;693222;28;819;-85
2022/03/22 01:21:39;;;;;;;;;;;21.10;24.10;;;;;;693114;28;1369;-85
2022/03/22 01:21:59;;;;;;;;;;;21.10;23.40;;;;;;694282;28;1337;-86
2022/03/22 01:22:20;;;;;;;;;;;21.10;23.40;;;;;;693406;28;1372;-88
2022/03/22 01:22:44;;;;;;;;;;;18.60;23.60;;;;;;692652;28;1082;-88
2022/03/22 01:23:07;;;;;;;;;;;21.10;23.30;;;;;;690628;28;803;-83
2022/03/22 01:23:27;;;;;;;;;;;21.10;23.20;;;;;;691491;28;1340;-84
2022/03/22 01:23:50;;;;;;;;;;;21.10;23.30;;;;;;692276;28;1078;-85
2022/03/22 01:24:10;;;;;;;;;;;21.10;23.90;;;;;;695861;28;802;-84
2022/03/22 01:24:31;;;;;;;;;;;21.10;23.60;;;;;;695313;28;1289;-84
2022/03/22 01:24:52;;;;;;;;;;;21.10;23.40;;;;;;692463;28;1177;-85
2022/03/22 01:25:14;;;;;;;;;;;21.10;24.00;;;;;;693102;28;1323;-84
2022/03/22 01:25:35;;;;;;;;;;;21.10;23.20;;;;;;691197;28;1193;-86
2022/03/22 01:25:56;;;;;;;;;;;21.10;23.40;;;;;;691106;28;1260;-84
2022/03/22 01:26:16;;;;;;;;;;;22.80;24.10;;;;;;691190;28;1292;-84
2022/03/22 01:26:37;;;;;;;;;;;21.10;23.50;;;;;;696341;28;1518;-84
2022/03/22 01:26:57;;;;;;;;;;;21.00;24.00;;;;;;698711;28;901;-85
2022/03/22 01:27:22;;;;;;;;;;;21.10;23.40;;;;;;693697;28;1270;-84
2022/03/22 01:27:43;;;;;;;;;;;21.10;23.50;;;;;;691413;28;1093;-86
2022/03/22 01:28:04;;;;;;;;;;;21.10;23.30;;;;;;691729;28;1095;-84
2022/03/22 01:28:26;;;;;;;;;;;21.10;23.20;;;;;;692923;28;1179;-86
2022/03/22 01:28:48;;;;;;;;;;;21.10;23.70;;;;;;691364;28;1330;-85
2022/03/22 01:29:11;;;;;;;;;;;21.10;23.80;;;;;;689889;28;1142;-84
2022/03/22 01:29:31;;;;;;;;;;;21.10;23.20;;;;;;691418;28;1126;-85
2022/03/22 01:29:52;;;;;;;;;;;21.00;23.50;;;;;;691546;28;1205;-86
2022/03/22 01:30:14;;;;;;;;;;;21.00;23.50;;;;;;689560;28;1372;-84
2022/03/22 01:30:36;;;;;;;;;;;21.10;23.10;;;;;;689606;28;1330;-86
2022/03/22 01:30:57;;;;;;;;;;;21.00;23.10;;;;;;691300;28;1232;-85
2022/03/22 01:31:18;;;;;;;;;;;21.00;23.60;;;;;;692061;28;1219;-84
2022/03/22 01:31:38;;;;;;;;;;;21.00;23.70;;;;;;691398;28;1290;-86
2022/03/22 01:31:59;;;;;;;;;;;21.00;24.10;;;;;;691455;28;870;-85
2022/03/22 01:32:20;;;;;;;;;;;21.00;23.90;;;;;;691706;28;1367;-85
2022/03/22 01:32:40;;;;;;;;;;;21.00;24.40;;;;;;688258;28;1710;-85
2022/03/22 01:33:01;;;;;;;;;;;21.00;23.80;;;;;;690826;28;1957;-84
2022/03/22 01:33:22;;;;;;;;;;;21.00;23.70;;;;;;691266;28;1212;-85
2022/03/22 01:33:42;;;;;;;;;;;21.00;23.80;;;;;;691305;28;1268;-83
2022/03/22 01:34:03;;;;;;;;;;;21.00;23.90;;;;;;690969;28;1314;-86
2022/03/22 01:34:24;;;;;;;;;;;21.00;23.60;;;;;;691183;28;1227;-90
2022/03/22 01:34:46;;;;;;;;;;;21.00;23.30;;;;;;692597;28;1689;-87
2022/03/22 01:35:09;;;;;;;;;;;21.00;23.60;;;;;;693372;28;862;-86
2022/03/22 01:35:30;;;;;;;;;;;21.00;23.30;;;;;;691998;28;815;-85
2022/03/22 01:35:50;;;;;;;;;;;21.00;23.20;;;;;;690300;28;1294;-86
2022/03/22 01:36:11;;;;;;;;;;;21.00;24.90;;;;;;689207;28;1213;-84
2022/03/22 01:36:31;;;;;;;;;;;21.00;23.40;;;;;;688467;28;1196;-86
2022/03/22 01:36:52;;;;;;;;;;;21.00;24.90;;;;;;691258;28;1327;-87
2022/03/22 01:37:13;;;;;;;;;;;21.00;23.70;;;;;;690893;28;1098;-86
2022/03/22 01:37:33;;;;;;;;;;;21.00;24.40;;;;;;691290;28;1260;-88
2022/03/22 01:37:55;;;;;;;;;;;19.30;25.10;;;;;;691613;28;1296;-89
2022/03/22 01:38:16;;;;;;;;;;;21.00;23.70;;;;;;691420;28;1177;-88
2022/03/22 01:38:37;;;;;;;;;;;20.90;26.00;;;;;;688290;28;1379;-87
2022/03/22 01:38:58;;;;;;;;;;;20.90;24.30;;;;;;688806;28;1101;-88
2022/03/22 01:39:19;;;;;;;;;;;17.20;22.70;;;;;;691939;28;1125;-88
2022/03/22 01:39:42;;;;;;;;;;;20.90;25.80;;;;;;689646;28;1110;-88
2022/03/22 01:40:03;;;;;;;;;;;20.90;31.00;;;;;;691598;28;1232;-90
2022/03/22 01:40:25;;;;;;;;;;;21.10;24.40;;;;;;691340;28;1245;-88
2022/03/22 01:40:46;;;;;;;;;;;21.00;24.40;;;;;;691446;28;1658;-87
2022/03/22 01:41:16;;;;;;;;;;;20.90;26.40;;;;;;689296;28;1674;-90
2022/03/22 01:41:37;;;;;;;;;;;21.10;26.80;;;;;;689149;28;1344;-90
2022/03/22 01:41:58;;;;;;;;;;;18.00;30.30;;;;;;685987;28;1154;-89
2022/03/22 01:42:18;;;;;;;;;;;21.20;27.10;;;;;;683553;29;1110;-90
2022/03/22 01:42:39;;;;;;;;;;;21.20;27.20;;;;;;685157;28;1223;-89
2022/03/22 01:43:00;;;;;;;;;;;20.90;28.30;;;;;;685972;28;1622;-89
2022/03/22 01:43:24;;;;;;;;;;;21.10;25.20;;;;;;683565;29;1210;-89
2022/03/22 01:43:44;;;;;;;;;;;20.90;26.90;;;;;;684530;28;1494;-90
2022/03/22 01:44:14;;;;;;;;;;;21.50;29.80;;;;;;686093;28;1766;-90
2022/03/22 01:44:34;;;;;;;;;;;20.40;24.20;;;;;;688302;28;1173;-90
2022/03/22 01:44:55;;;;;;;;;;;20.90;25.40;;;;;;688992;28;1112;-88
2022/03/22 01:45:16;;;;;;;;;;;21.00;25.80;;;;;;685843;28;1205;-86
2022/03/22 01:45:36;;;;;;;;;;;20.90;24.80;;;;;;685893;28;1473;-85
2022/03/22 01:45:58;;;;;;;;;;;19.20;24.40;;;;;;684553;28;1329;-89
2022/03/22 01:46:24;;;;;;;;;;;20.90;28.50;;;;;;683738;28;1239;-87
2022/03/22 01:46:45;;;;;;;;;;;20.90;25.00;;;;;;686989;28;1221;-86
2022/03/22 01:47:06;;;;;;;;;;;21.10;25.40;;;;;;689546;28;1821;-87
2022/03/22 01:47:28;;;;;;;;;;;20.90;24.80;;;;;;693757;28;1326;-86
2022/03/22 01:47:49;;;;;;;;;;;20.90;25.30;;;;;;691476;28;1347;-87
2022/03/22 01:48:09;;;;;;;;;;;20.90;24.70;;;;;;692421;28;1255;-87
2022/03/22 01:48:30;;;;;;;;;;;20.90;24.60;;;;;;691258;28;1261;-87
2022/03/22 01:48:51;;;;;;;;;;;20.90;24.90;;;;;;691386;28;1201;-87
2022/03/22 01:49:11;;;;;;;;;;;20.90;25.10;;;;;;691211;28;1126;-85
2022/03/22 01:49:33;;;;;;;;;;;20.90;25.40;;;;;;691490;28;1303;-85
2022/03/22 01:49:53;;;;;;;;;;;20.90;24.40;;;;;;694549;28;1212;-85
2022/03/22 01:50:15;;;;;;;;;;;20.90;25.50;;;;;;696881;28;1208;-88
2022/03/22 01:50:37;;;;;;;;;;;19.50;23.90;;;;;;696135;28;1230;-88
2022/03/22 01:50:57;;;;;;;;;;;20.90;25.30;;;;;;691609;28;1263;-88
2022/03/22 01:51:20;;;;;;;;;;;20.80;25.70;;;;;;691135;28;1328;-86
2022/03/22 01:51:41;;;;;;;;;;;21.40;24.70;;;;;;688268;28;1117;-87
2022/03/22 01:52:03;;;;;;;;;;;20.90;24.40;;;;;;688638;28;1358;-88
2022/03/22 01:52:27;;;;;;;;;;;20.90;24.50;;;;;;688386;28;1643;-84
2022/03/22 01:52:48;;;;;;;;;;;20.90;24.50;;;;;;690269;28;1895;-86
2022/03/22 01:53:10;;;;;;;;;;;20.90;26.00;;;;;;686037;28;1507;-86
2022/03/22 01:53:32;;;;;;;;;;;21.30;25.10;;;;;;684223;28;1489;-86
2022/03/22 01:53:53;;;;;;;;;;;21.20;25.80;;;;;;685838;28;1097;-86
2022/03/22 01:54:15;;;;;;;;;;;20.90;24.80;;;;;;685723;28;1158;-87
2022/03/22 01:54:35;;;;;;;;;;;20.90;24.10;;;;;;686042;28;1429;-87
2022/03/22 01:54:56;;;;;;;;;;;20.90;24.70;;;;;;686225;28;1359;-85
2022/03/22 01:55:19;;;;;;;;;;;20.90;24.50;;;;;;688481;28;997;-87
2022/03/22 01:55:39;;;;;;;;;;;20.90;23.90;;;;;;688948;28;1208;-86
2022/03/22 01:56:00;;;;;;;;;;;20.90;24.20;;;;;;691065;28;1421;-87
2022/03/22 01:56:20;;;;;;;;;;;20.90;24.70;;;;;;691318;28;1204;-86
2022/03/22 01:56:41;;;;;;;;;;;20.80;25.90;;;;;;693205;28;1404;-87
2022/03/22 01:57:02;;;;;;;;;;;20.90;24.30;;;;;;692663;28;1306;-86
2022/03/22 01:57:23;;;;;;;;;;;20.90;25.00;;;;;;689634;28;1313;-88
2022/03/22 01:57:44;;;;;;;;;;;20.90;24.00;;;;;;687942;28;1395;-87
2022/03/22 01:58:04;;;;;;;;;;;20.90;25.10;;;;;;687883;28;1336;-86
2022/03/22 01:58:25;;;;;;;;;;;20.90;25.80;;;;;;687636;28;1224;-86
2022/03/22 01:58:47;;;;;;;;;;;20.80;25.00;;;;;;686216;28;1193;-86
2022/03/22 01:59:07;;;;;;;;;;;20.90;24.20;;;;;;686130;28;1363;-85
2022/03/22 01:59:28;;;;;;;;;;;20.90;25.10;;;;;;688322;28;1086;-86
2022/03/22 01:59:49;;;;;;;;;;;20.90;24.70;;;;;;688524;28;1241;-85
2022/03/22 02:00:12;;;;;;;;;;;20.90;24.60;;;;;;687885;28;1366;-86
2022/03/22 02:00:32;;;;;;;;;;;21.20;24.30;;;;;;687023;28;1411;-87
2022/03/22 02:05:51;;;;;;;;;;;20.80;25.70;;;;;;688822;28;1187;-86
2022/03/22 02:05:52;;;;;;;;;;;20.90;24.00;;;;;;693989;28;534;-85
2022/03/22 02:06:14;;;;;;;;;;;20.90;23.80;;;;;;693661;28;1284;-86
2022/03/22 02:06:35;;;;;;;;;;;20.90;23.70;;;;;;693774;28;814;-87
2022/03/22 02:06:56;;;;;;;;;;;20.80;23.60;;;;;;691162;28;1208;-86
2022/03/22 02:07:17;;;;;;;;;;;20.80;23.80;;;;;;691183;28;1343;-86
2022/03/22 02:07:39;;;;;;;;;;;20.80;23.60;;;;;;691309;28;1465;-85
2022/03/22 02:08:00;;;;;;;;;;;20.80;23.60;;;;;;691909;28;1410;-85
2022/03/22 02:08:30;;;;;;;;;;;20.80;23.90;;;;;;691111;28;1756;-87
2022/03/22 02:08:51;;;;;;;;;;;20.80;23.50;;;;;;690429;28;1295;-86
2022/03/22 02:09:12;;;;;;;;;;;20.80;24.20;;;;;;686649;28;1280;-86
2022/03/22 02:09:33;;;;;;;;;;;20.80;24.20;;;;;;685970;28;873;-88
2022/03/22 02:09:54;;;;;;;;;;;20.90;25.00;;;;;;687761;28;1186;-88
2022/03/22 02:10:14;;;;;;;;;;;20.40;24.60;;;;;;690492;28;1089;-88
2022/03/22 02:10:35;;;;;;;;;;;20.80;24.70;;;;;;691514;28;843;-86
2022/03/22 02:10:59;;;;;;;;;;;20.80;23.90;;;;;;691689;28;1250;-86
2022/03/22 02:11:20;;;;;;;;;;;20.80;23.70;;;;;;693876;28;1320;-86
2022/03/22 02:11:40;;;;;;;;;;;20.80;24.20;;;;;;690194;28;1336;-87
2022/03/22 02:12:01;;;;;;;;;;;20.90;24.30;;;;;;689872;28;1312;-85
2022/03/22 02:12:21;;;;;;;;;;;20.90;24.00;;;;;;688425;28;1356;-85
2022/03/22 02:12:44;;;;;;;;;;;19.40;23.40;;;;;;688246;28;1240;-86
2022/03/22 02:13:05;;;;;;;;;;;20.80;24.10;;;;;;688452;28;1977;-86
2022/03/22 02:13:26;;;;;;;;;;;20.90;24.40;;;;;;689498;28;822;-86
2022/03/22 02:13:47;;;;;;;;;;;17.80;22.60;;;;;;688907;28;1469;-86